Time;durP1;ratioP1;P1;durP2;ratioP2;P2;SDS_P1;SDS_P2;PMS_P1;PMS_P2;Temp;Humidity;BMP_temperature;BMP_pressure;BME280_temperature;BME280_humidity;BME280_pressure;Samples;Min_cycle;Max_cycle;Signal;HPM_P1;HPM_P2
2022/09/10 00:00:13;;;;;;;;;;;;;;;21.69;72.15;99699.38;5098978;28;20082;-67
2022/09/10 00:02:38;;;;;;;;;;;;;;;21.70;72.53;99695.63;5080307;28;19912;-67
2022/09/10 00:05:04;;;;;;;;;;;;;;;21.65;72.50;99696.34;5099329;28;20210;-68
2022/09/10 00:07:31;;;;;;;;;;;;;;;21.62;72.30;99693.28;5100851;28;19919;-68
2022/09/10 00:09:56;;;;;;;;;;;;;;;21.55;71.69;99700.69;5099586;28;19920;-68
2022/09/10 00:12:22;;;;;;;;;;;;;;;21.34;74.01;99702.06;5098449;28;19939;-67
2022/09/10 00:14:47;;;;;;;;;;;;;;;21.08;75.49;99694.41;5098835;28;19988;-67
2022/09/10 00:17:12;;;;;;;;;;;;;;;21.04;76.65;99691.34;5099383;28;19916;-68
2022/09/10 00:19:38;;;;;;;;;;;;;;;21.00;78.49;99685.63;5101508;28;19919;-67
2022/09/10 00:22:03;;;;;;;;;;;;;;;21.20;77.92;99692.56;5100758;28;20178;-67
2022/09/10 00:24:28;;;;;;;;;;;;;;;21.14;78.47;99691.59;5098298;28;19930;-68
2022/09/10 00:26:54;;;;;;;;;;;;;;;21.22;78.02;99704.75;5098356;28;19916;-68
2022/09/10 00:29:19;;;;;;;;;;;;;;;21.19;79.21;99696.28;5099069;28;20167;-68
2022/09/10 00:31:44;;;;;;;;;;;;;;;21.25;79.46;99695.41;5098471;28;19984;-67
2022/09/10 00:34:11;;;;;;;;;;;;;;;21.48;78.67;99692.72;5098956;28;19912;-67
2022/09/10 00:36:41;;;;;;;;;;;;;;;21.69;77.93;99691.31;5098738;28;19924;-67
2022/09/10 00:39:11;;;;;;;;;;;;;;;21.84;77.59;99705.09;5097861;28;20194;-67
2022/09/10 00:41:38;;;;;;;;;;;;;;;22.07;76.11;99708.88;5055376;28;20206;-67
2022/09/10 00:44:04;;;;;;;;;;;;;;;21.96;76.45;99703.25;5060781;28;19920;-67
2022/09/10 00:46:30;;;;;;;;;;;;;;;22.12;75.18;99696.34;5060317;28;19984;-67
2022/09/10 00:48:57;;;;;;;;;;;;;;;22.21;74.89;99696.78;5058052;28;20125;-68
2022/09/10 00:51:25;;;;;;;;;;;;;;;22.28;73.80;99702.84;5058874;28;19925;-67
2022/09/10 00:53:50;;;;;;;;;;;;;;;22.32;73.15;99712.09;5056147;28;20122;-68
2022/09/10 00:56:16;;;;;;;;;;;;;;;22.26;72.78;99710.38;5057731;28;19983;-67
2022/09/10 00:58:42;;;;;;;;;;;;;;;22.10;73.75;99703.03;5056981;28;20114;-68
2022/09/10 01:01:08;;;;;;;;;;;;;;;22.08;74.81;99705.13;5057761;28;19916;-68
2022/09/10 01:03:33;;;;;;;;;;;;;;;22.16;74.17;99700.19;5060218;28;19987;-68
2022/09/10 01:05:59;;;;;;;;;;;;;;;22.23;72.97;99702.75;5064796;28;20202;-68
2022/09/10 01:08:26;;;;;;;;;;;;;;;22.17;73.67;99703.69;5063687;28;19921;-67
2022/09/10 01:11:10;;;;;;;;;;;;;;;22.22;73.51;99707.31;5063033;28;20027;-67
2022/09/10 01:13:54;;;;;;;;;;;;;;;22.06;74.41;99701.84;5063123;28;20182;-67
2022/09/10 01:16:35;;;;;;;;;;;;;;;22.10;74.57;99690.34;5060575;28;20117;-68
2022/09/10 01:19:16;;;;;;;;;;;;;;;22.25;74.04;99692.53;5061875;28;19912;-67
2022/09/10 01:21:56;;;;;;;;;;;;;;;22.17;73.68;99707.22;5061817;28;19924;-68
2022/09/10 01:24:39;;;;;;;;;;;;;;;22.09;74.18;99702.19;5061780;28;19912;-67
2022/09/10 01:27:20;;;;;;;;;;;;;;;22.14;73.45;99693.41;5062249;28;19929;-68
2022/09/10 01:29:58;;;;;;;;;;;;;;;22.26;72.42;99695.00;5062051;28;19985;-68
2022/09/10 01:32:30;;;;;;;;;;;;;;;22.18;71.37;99687.28;5062409;28;19925;-68
2022/09/10 01:35:14;;;;;;;;;;;;;;;21.90;73.68;99688.03;5061268;28;19971;-67
2022/09/10 01:37:42;;;;;;;;;;;;;;;21.61;75.08;99691.66;5060699;28;19931;-67
2022/09/10 01:40:08;;;;;;;;;;;;;;;21.56;75.74;99705.84;5076810;28;19943;-68
2022/09/10 01:42:36;;;;;;;;;;;;;;;21.56;76.30;99703.13;5104685;28;19957;-67
2022/09/10 01:45:01;;;;;;;;;;;;;;;21.74;75.92;99706.75;5104673;28;19919;-68
2022/09/10 01:47:45;;;;;;;;;;;;;;;21.70;76.07;99701.03;5100946;28;19916;-67
2022/09/10 01:50:11;;;;;;;;;;;;;;;21.78;75.94;99708.75;5101222;28;19920;-68
2022/09/10 01:52:48;;;;;;;;;;;;;;;21.86;75.62;99704.91;5101178;28;19919;-67
2022/09/10 01:55:21;;;;;;;;;;;;;;;21.86;74.46;99708.41;5098107;28;19916;-68
2022/09/10 01:57:54;;;;;;;;;;;;;;;21.91;74.00;99711.22;5101590;28;20002;-67
2022/09/10 02:00:23;;;;;;;;;;;;;;;21.97;74.35;99718.38;5101392;28;19923;-67
2022/09/10 02:02:57;;;;;;;;;;;;;;;21.97;73.41;99709.47;5100649;28;19912;-67
2022/09/10 02:05:25;;;;;;;;;;;;;;;21.98;74.24;99708.41;5098089;28;19940;-68
2022/09/10 02:07:53;;;;;;;;;;;;;;;21.95;73.49;99703.50;5101073;28;19967;-68
2022/09/10 02:10:18;;;;;;;;;;;;;;;21.96;73.75;99700.56;5100469;28;19924;-67
2022/09/10 02:12:44;;;;;;;;;;;;;;;21.96;73.14;99692.47;5100767;28;20245;-68
2022/09/10 02:15:10;;;;;;;;;;;;;;;21.79;72.44;99690.69;5101228;28;20201;-67
2022/09/10 02:17:37;;;;;;;;;;;;;;;21.81;73.14;99688.59;5103884;28;19915;-67
2022/09/10 02:20:07;;;;;;;;;;;;;;;21.72;73.25;99682.75;5102442;28;20037;-67
2022/09/10 02:22:35;;;;;;;;;;;;;;;21.62;72.80;99686.03;5098004;28;19923;-68
2022/09/10 02:25:00;;;;;;;;;;;;;;;21.54;74.25;99693.66;5101150;28;19919;-68
2022/09/10 02:27:28;;;;;;;;;;;;;;;21.54;74.72;99694.47;5100486;28;19916;-67
2022/09/10 02:29:54;;;;;;;;;;;;;;;21.57;73.53;99704.78;5101669;28;19990;-68
2022/09/10 02:32:20;;;;;;;;;;;;;;;21.48;74.02;99708.88;5100254;28;19923;-67
2022/09/10 02:34:45;;;;;;;;;;;;;;;21.54;76.23;99715.22;5100318;28;19915;-67
2022/09/10 02:37:10;;;;;;;;;;;;;;;21.59;76.29;99713.44;5100805;28;20267;-67
2022/09/10 02:39:36;;;;;;;;;;;;;;;21.57;76.14;99720.13;5099613;28;20249;-67
2022/09/10 02:42:01;;;;;;;;;;;;;;;21.52;75.81;99720.81;5100945;28;20091;-67
2022/09/10 02:44:27;;;;;;;;;;;;;;;21.56;75.94;99718.47;5102566;28;19912;-67
2022/09/10 02:46:52;;;;;;;;;;;;;;;21.66;74.18;99721.41;5103284;28;19949;-67
2022/09/10 02:49:18;;;;;;;;;;;;;;;21.68;73.63;99695.06;5099836;28;19989;-67
2022/09/10 02:51:43;;;;;;;;;;;;;;;21.54;73.27;99689.09;5100824;28;19991;-68
2022/09/10 02:54:09;;;;;;;;;;;;;;;21.35;73.77;99684.88;5099667;28;19911;-68
2022/09/10 02:56:34;;;;;;;;;;;;;;;21.06;75.82;99681.19;5100876;28;19979;-67
2022/09/10 02:58:59;;;;;;;;;;;;;;;21.07;74.81;99696.28;5081376;28;20200;-68
2022/09/10 03:01:25;;;;;;;;;;;;;;;21.01;74.97;99702.59;5100495;28;19975;-67
2022/09/10 03:03:53;;;;;;;;;;;;;;;21.10;76.45;99709.28;5100640;28;19920;-68
2022/09/10 03:06:20;;;;;;;;;;;;;;;21.18;76.21;99716.19;5099420;28;19919;-68
2022/09/10 03:08:46;;;;;;;;;;;;;;;21.25;76.20;99715.06;5100721;28;19912;-68
2022/09/10 03:11:15;;;;;;;;;;;;;;;21.37;75.72;99722.34;5099490;28;20105;-68
2022/09/10 03:13:41;;;;;;;;;;;;;;;21.32;76.11;99723.03;5099227;28;20105;-67
2022/09/10 03:16:08;;;;;;;;;;;;;;;21.35;76.23;99726.09;5100340;28;19943;-68
2022/09/10 03:18:34;;;;;;;;;;;;;;;21.42;75.93;99728.66;5099001;28;20396;-68
2022/09/10 03:21:08;;;;;;;;;;;;;;;21.29;76.52;99724.31;5099594;28;19916;-67
2022/09/10 03:23:34;;;;;;;;;;;;;;;21.37;76.49;99711.56;5100130;28;20213;-67
2022/09/10 03:25:59;;;;;;;;;;;;;;;21.49;75.40;99720.47;5098942;28;19978;-68
2022/09/10 03:28:25;;;;;;;;;;;;;;;21.39;75.82;99717.53;5099357;28;19965;-67
2022/09/10 03:30:50;;;;;;;;;;;;;;;21.40;75.62;99709.22;5099862;28;19923;-67
2022/09/10 03:33:19;;;;;;;;;;;;;;;21.48;75.27;99711.56;5099944;28;19912;-68
2022/09/10 03:35:45;;;;;;;;;;;;;;;21.36;75.38;99710.75;5098796;28;19924;-68
2022/09/10 03:38:10;;;;;;;;;;;;;;;21.17;76.31;99701.09;5099187;28;19974;-68
2022/09/10 03:40:36;;;;;;;;;;;;;;;21.35;75.67;99703.72;5099367;28;19962;-67
2022/09/10 03:43:01;;;;;;;;;;;;;;;21.30;76.20;99714.38;5101262;28;19912;-68
2022/09/10 03:45:27;;;;;;;;;;;;;;;21.43;74.96;99718.72;5101867;28;19961;-68
2022/09/10 03:47:52;;;;;;;;;;;;;;;21.31;75.30;99724.09;5099547;28;19954;-67
2022/09/10 03:50:19;;;;;;;;;;;;;;;21.24;74.77;99718.81;5100654;28;20248;-68
2022/09/10 03:52:44;;;;;;;;;;;;;;;21.25;75.22;99712.38;5099760;28;20143;-68
2022/09/10 03:55:10;;;;;;;;;;;;;;;21.30;74.17;99712.50;5101034;28;19916;-67
2022/09/10 03:57:36;;;;;;;;;;;;;;;21.24;72.71;99720.69;5101966;28;20159;-67
2022/09/10 04:00:01;;;;;;;;;;;;;;;21.04;74.10;99712.88;5099091;28;20148;-67
2022/09/10 04:02:27;;;;;;;;;;;;;;;20.91;75.00;99707.72;5099507;28;19958;-67
2022/09/10 04:04:52;;;;;;;;;;;;;;;20.90;74.44;99717.66;5099298;28;19912;-67
2022/09/10 04:07:17;;;;;;;;;;;;;;;20.86;75.45;99713.78;5101596;28;19915;-67
2022/09/10 04:09:43;;;;;;;;;;;;;;;20.85;75.26;99717.53;5082607;28;20309;-67
2022/09/10 04:12:08;;;;;;;;;;;;;;;20.80;75.54;99713.84;5098335;28;19916;-67
2022/09/10 04:14:33;;;;;;;;;;;;;;;20.78;74.42;99711.38;5099034;28;19979;-67
2022/09/10 04:16:59;;;;;;;;;;;;;;;20.74;74.19;99712.91;5099308;28;19931;-68
2022/09/10 04:19:26;;;;;;;;;;;;;;;20.67;76.47;99722.94;5098156;28;19912;-67
2022/09/10 04:21:52;;;;;;;;;;;;;;;20.71;75.78;99714.16;5099587;28;19978;-67
2022/09/10 04:24:17;;;;;;;;;;;;;;;20.75;76.10;99717.22;5097863;28;19912;-67
2022/09/10 04:26:43;;;;;;;;;;;;;;;20.80;75.09;99711.97;5098475;28;19916;-67
2022/09/10 04:29:08;;;;;;;;;;;;;;;20.72;74.82;99717.69;5098950;28;20132;-67
2022/09/10 04:31:33;;;;;;;;;;;;;;;20.89;74.04;99716.00;5098385;28;19916;-67
2022/09/10 04:34:01;;;;;;;;;;;;;;;20.89;74.57;99718.72;5099158;28;20194;-67
2022/09/10 04:36:26;;;;;;;;;;;;;;;20.97;74.84;99718.38;5098576;28;19916;-67
2022/09/10 04:38:52;;;;;;;;;;;;;;;20.86;76.55;99723.72;5098267;28;19982;-67
2022/09/10 04:41:18;;;;;;;;;;;;;;;21.02;75.56;99717.69;5097576;28;19916;-68
2022/09/10 04:43:43;;;;;;;;;;;;;;;21.00;76.20;99712.53;5098799;28;19934;-67
2022/09/10 04:46:09;;;;;;;;;;;;;;;21.15;75.79;99719.34;5097873;28;19924;-68
2022/09/10 04:48:34;;;;;;;;;;;;;;;21.31;76.27;99707.94;5098170;28;20232;-68
2022/09/10 04:50:59;;;;;;;;;;;;;;;21.34;77.51;99700.19;5099066;28;19923;-68
2022/09/10 04:53:26;;;;;;;;;;;;;;;21.42;76.58;99700.91;5098033;28;19912;-68
2022/09/10 04:55:53;;;;;;;;;;;;;;;21.50;76.74;99701.38;5099093;28;19922;-68
2022/09/10 04:58:18;;;;;;;;;;;;;;;21.64;76.00;99701.97;5098006;28;19920;-68
2022/09/10 05:00:44;;;;;;;;;;;;;;;21.73;76.16;99702.44;5079942;28;20102;-68
2022/09/10 05:03:09;;;;;;;;;;;;;;;21.66;76.78;99711.44;5099315;28;19920;-68
2022/09/10 05:05:34;;;;;;;;;;;;;;;21.62;76.76;99718.38;5097256;28;19916;-68
2022/09/10 05:08:00;;;;;;;;;;;;;;;21.81;75.59;99716.38;5098619;28;19919;-68
2022/09/10 05:10:26;;;;;;;;;;;;;;;21.79;75.69;99720.34;5097293;28;19927;-68
2022/09/10 05:12:51;;;;;;;;;;;;;;;21.84;76.21;99723.16;5097498;28;19916;-68
2022/09/10 05:15:17;;;;;;;;;;;;;;;21.81;75.87;99731.72;5098516;28;19942;-68
2022/09/10 05:17:42;;;;;;;;;;;;;;;21.98;74.51;99733.50;5097497;28;19911;-68
2022/09/10 05:20:09;;;;;;;;;;;;;;;22.37;73.00;99731.09;5098244;28;19955;-68
2022/09/10 05:22:35;;;;;;;;;;;;;;;22.70;70.97;99733.06;5098494;28;19923;-68
2022/09/10 05:25:00;;;;;;;;;;;;;;;22.77;69.69;99741.03;5100918;28;19950;-68
2022/09/10 05:27:25;;;;;;;;;;;;;;;23.06;68.01;99726.50;5098336;28;20292;-68
2022/09/10 05:29:51;;;;;;;;;;;;;;;23.27;66.47;99713.34;5079356;28;21156;-68
2022/09/10 05:32:17;;;;;;;;;;;;;;;23.46;66.27;99715.53;5097745;28;19924;-68
2022/09/10 05:34:44;;;;;;;;;;;;;;;23.68;64.94;99714.81;5098148;28;19912;-68
2022/09/10 05:37:10;;;;;;;;;;;;;;;23.71;65.27;99714.31;5098938;28;19916;-68
2022/09/10 05:39:36;;;;;;;;;;;;;;;23.65;65.68;99712.59;5100435;28;19916;-68
2022/09/10 05:42:01;;;;;;;;;;;;;;;23.69;65.70;99716.44;5098984;28;20030;-68
2022/09/10 05:44:27;;;;;;;;;;;;;;;24.01;64.93;99720.16;5098389;28;20101;-68
2022/09/10 05:46:52;;;;;;;;;;;;;;;24.40;63.17;99720.13;5097519;28;19924;-68
2022/09/10 05:49:17;;;;;;;;;;;;;;;24.49;62.33;99703.19;5098543;28;20225;-68
2022/09/10 05:51:43;;;;;;;;;;;;;;;24.57;62.00;99715.47;5100880;28;19994;-68
2022/09/10 05:54:08;;;;;;;;;;;;;;;24.48;62.68;99723.22;5103403;28;19912;-68
2022/09/10 05:56:33;;;;;;;;;;;;;;;24.24;63.12;99721.00;5104295;28;19919;-68
2022/09/10 05:58:59;;;;;;;;;;;;;;;23.93;64.48;99727.84;5101773;28;19912;-68
2022/09/10 06:01:24;;;;;;;;;;;;;;;23.93;66.00;99727.84;5100929;28;19915;-68
2022/09/10 06:03:49;;;;;;;;;;;;;;;24.17;64.33;99730.13;5101534;28;20098;-68
2022/09/10 06:06:15;;;;;;;;;;;;;;;24.19;64.37;99722.56;5100478;28;20502;-68
2022/09/10 06:08:41;;;;;;;;;;;;;;;24.23;64.67;99719.34;5100630;28;19912;-68
2022/09/10 06:11:06;;;;;;;;;;;;;;;23.83;65.79;99710.44;5101576;28;20133;-68
2022/09/10 06:13:32;;;;;;;;;;;;;;;24.14;65.72;99705.44;5100611;28;19981;-68
2022/09/10 06:15:58;;;;;;;;;;;;;;;24.31;65.18;99710.81;5100968;28;19962;-68
2022/09/10 06:18:23;;;;;;;;;;;;;;;24.55;63.89;99705.94;5101274;28;19923;-68
2022/09/10 06:20:48;;;;;;;;;;;;;;;24.36;64.11;99716.28;5101027;28;20292;-68
2022/09/10 06:23:15;;;;;;;;;;;;;;;24.52;64.47;99720.81;5101422;28;20197;-68
2022/09/10 06:25:40;;;;;;;;;;;;;;;24.26;65.11;99724.25;5100211;28;19922;-69
2022/09/10 06:28:06;;;;;;;;;;;;;;;24.13;65.75;99723.56;5100519;28;19911;-68
2022/09/10 06:30:31;;;;;;;;;;;;;;;24.19;65.64;99722.56;5100929;28;20113;-68
2022/09/10 06:32:56;;;;;;;;;;;;;;;24.01;65.65;99711.22;5100397;28;19915;-68
2022/09/10 06:35:23;;;;;;;;;;;;;;;24.10;65.81;99715.13;5100817;28;19932;-68
2022/09/10 06:37:49;;;;;;;;;;;;;;;24.09;66.01;99729.72;5100051;28;19908;-68
2022/09/10 06:40:14;;;;;;;;;;;;;;;24.18;65.32;99739.06;5100101;28;19951;-68
2022/09/10 06:42:39;;;;;;;;;;;;;;;24.39;64.61;99742.84;5082712;28;20263;-68
2022/09/10 06:45:05;;;;;;;;;;;;;;;24.65;64.16;99746.66;5100378;28;19912;-68
2022/09/10 06:47:31;;;;;;;;;;;;;;;24.99;62.50;99733.81;5100923;28;19924;-68
2022/09/10 06:49:56;;;;;;;;;;;;;;;25.03;61.66;99719.50;5099747;28;20426;-68
2022/09/10 06:52:21;;;;;;;;;;;;;;;25.24;61.40;99714.25;5099982;28;20069;-68
2022/09/10 06:54:47;;;;;;;;;;;;;;;25.63;59.23;99718.34;5100828;28;20213;-68
2022/09/10 06:57:12;;;;;;;;;;;;;;;25.96;57.20;99706.34;5099740;28;19923;-68
2022/09/10 06:59:38;;;;;;;;;;;;;;;26.18;55.77;99708.09;5100994;28;19931;-68
2022/09/10 07:02:03;;;;;;;;;;;;;;;26.10;55.91;99714.84;5099265;28;20048;-68
2022/09/10 07:04:28;;;;;;;;;;;;;;;26.37;55.63;99718.25;5101426;28;20152;-69
2022/09/10 07:06:54;;;;;;;;;;;;;;;26.14;54.71;99715.16;5102881;28;19922;-69
2022/09/10 07:09:19;;;;;;;;;;;;;;;26.28;56.24;99713.56;5100676;28;19912;-68
2022/09/10 07:11:45;;;;;;;;;;;;;;;26.16;56.45;99697.50;5099587;28;19950;-68
2022/09/10 07:14:13;;;;;;;;;;;;;;;26.58;55.86;99691.16;5100487;28;19920;-68
2022/09/10 07:16:43;;;;;;;;;;;;;;;26.77;55.69;99691.47;5099521;28;19916;-68
2022/09/10 07:19:09;;;;;;;;;;;;;;;26.93;53.46;99695.81;5082274;28;19912;-68
2022/09/10 07:21:36;;;;;;;;;;;;;;;26.70;53.66;99714.28;5096111;28;19978;-68
2022/09/10 07:24:02;;;;;;;;;;;;;;;26.64;54.34;99719.97;5098723;28;20220;-68
2022/09/10 07:26:28;;;;;;;;;;;;;;;26.75;53.95;99718.91;5099488;28;19916;-68
2022/09/10 07:28:53;;;;;;;;;;;;;;;27.24;52.67;99721.19;5099559;28;19915;-68
2022/09/10 07:31:20;;;;;;;;;;;;;;;27.77;50.94;99730.66;5081005;28;19965;-68
2022/09/10 07:33:46;;;;;;;;;;;;;;;28.30;49.09;99725.66;5100073;28;19912;-68
2022/09/10 07:36:11;;;;;;;;;;;;;;;28.73;48.08;99729.50;5098917;28;19923;-68
2022/09/10 07:38:37;;;;;;;;;;;;;;;28.39;49.51;99740.31;5098708;28;19912;-68
2022/09/10 07:41:02;;;;;;;;;;;;;;;28.59;48.71;99747.56;5100507;28;19916;-69
2022/09/10 07:43:28;;;;;;;;;;;;;;;29.01;48.05;99732.63;5099084;28;20009;-69
2022/09/10 07:45:54;;;;;;;;;;;;;;;29.24;45.93;99732.75;5099048;28;19916;-69
2022/09/10 07:48:19;;;;;;;;;;;;;;;28.92;46.57;99722.34;5100056;28;19916;-66
2022/09/10 07:50:44;;;;;;;;;;;;;;;28.59;48.19;99712.97;5098784;28;19916;-66
2022/09/10 07:53:10;;;;;;;;;;;;;;;28.50;48.03;99698.31;5099553;28;19912;-66
2022/09/10 07:55:35;;;;;;;;;;;;;;;28.34;48.64;99695.97;5099510;28;19924;-66
2022/09/10 07:58:00;;;;;;;;;;;;;;;28.49;48.54;99684.97;5098729;28;19918;-66
2022/09/10 08:00:26;;;;;;;;;;;;;;;28.78;48.16;99679.63;5099550;28;19924;-69
2022/09/10 08:02:51;;;;;;;;;;;;;;;29.00;46.70;99685.47;5099738;28;19912;-68
2022/09/10 08:05:16;;;;;;;;;;;;;;;29.43;45.14;99682.97;5099067;28;20081;-68
2022/09/10 08:07:42;;;;;;;;;;;;;;;29.49;44.01;99677.19;5098461;28;19919;-69
2022/09/10 08:10:08;;;;;;;;;;;;;;;29.24;44.04;99677.41;5099776;28;20189;-68
2022/09/10 08:12:38;;;;;;;;;;;;;;;29.21;44.75;99686.16;5097632;28;19924;-68
2022/09/10 08:15:04;;;;;;;;;;;;;;;28.99;46.91;99686.56;5099180;28;19911;-68
2022/09/10 08:17:30;;;;;;;;;;;;;;;28.98;46.14;99689.59;5099644;28;19999;-68
2022/09/10 08:19:55;;;;;;;;;;;;;;;29.11;45.52;99688.94;5101916;28;19912;-68
2022/09/10 08:22:21;;;;;;;;;;;;;;;29.12;45.65;99693.28;5100376;28;19923;-68
2022/09/10 08:24:49;;;;;;;;;;;;;;;29.29;45.80;99695.63;5095929;28;19912;-69
2022/09/10 08:27:15;;;;;;;;;;;;;;;29.30;45.60;99702.72;5080966;28;19975;-69
2022/09/10 08:29:40;;;;;;;;;;;;;;;29.58;45.34;99692.94;5098260;28;20005;-69
2022/09/10 08:32:06;;;;;;;;;;;;;;;29.47;45.09;99690.31;5099227;28;19992;-68
2022/09/10 08:34:32;;;;;;;;;;;;;;;29.55;45.33;99691.59;5097822;28;20026;-66
2022/09/10 08:36:58;;;;;;;;;;;;;;;29.71;43.82;99693.06;5098297;28;19977;-66
2022/09/10 08:39:23;;;;;;;;;;;;;;;29.83;43.50;99692.66;5098666;28;19923;-66
2022/09/10 08:42:09;;;;;;;;;;;;;;;29.66;43.95;99693.09;5097757;28;20002;-66
2022/09/10 08:44:34;;;;;;;;;;;;;;;29.52;43.97;99690.25;5097090;28;19924;-67
2022/09/10 08:47:09;;;;;;;;;;;;;;;29.59;44.32;99691.81;5098636;28;20033;-66
2022/09/10 08:49:43;;;;;;;;;;;;;;;30.11;43.01;99689.06;5099019;28;19926;-67
2022/09/10 08:52:15;;;;;;;;;;;;;;;30.29;42.80;99698.44;5080311;28;20022;-67
2022/09/10 08:54:46;;;;;;;;;;;;;;;30.02;42.69;99693.53;5098215;28;20055;-67
2022/09/10 08:57:21;;;;;;;;;;;;;;;29.85;42.79;99682.25;5098012;28;19939;-67
2022/09/10 08:59:48;;;;;;;;;;;;;;;29.77;42.93;99674.72;5095351;28;19918;-67
2022/09/10 09:02:30;;;;;;;;;;;;;;;29.62;43.73;99653.03;5098381;28;20059;-67
2022/09/10 09:05:02;;;;;;;;;;;;;;;29.45;43.98;99653.50;5100295;28;20200;-67
2022/09/10 09:07:30;;;;;;;;;;;;;;;29.37;43.20;99652.19;5100838;28;19919;-68
2022/09/10 09:09:55;;;;;;;;;;;;;;;29.46;42.96;99655.13;5098424;28;19943;-67
2022/09/10 09:12:21;;;;;;;;;;;;;;;29.70;41.74;99652.41;5098773;28;20118;-68
2022/09/10 09:14:55;;;;;;;;;;;;;;;29.83;41.25;99641.59;5098260;28;19924;-68
2022/09/10 09:17:36;;;;;;;;;;;;;;;30.00;41.00;99645.78;5097680;28;19916;-67
2022/09/10 09:20:03;;;;;;;;;;;;;;;30.06;41.13;99639.97;5100166;28;19920;-68
2022/09/10 09:22:47;;;;;;;;;;;;;;;30.04;42.09;99642.19;5097825;28;19954;-67
2022/09/10 09:25:18;;;;;;;;;;;;;;;30.19;41.20;99635.75;5098119;28;19962;-68
2022/09/10 09:27:44;;;;;;;;;;;;;;;30.06;40.50;99631.78;5098658;28;20140;-67
2022/09/10 09:30:16;;;;;;;;;;;;;;;29.72;41.29;99625.66;5102245;28;19931;-67
2022/09/10 09:32:43;;;;;;;;;;;;;;;29.13;43.52;99616.69;5101981;28;19926;-68
2022/09/10 09:35:22;;;;;;;;;;;;;;;29.22;43.78;99616.88;5102360;28;20217;-67
2022/09/10 09:37:49;;;;;;;;;;;;;;;29.61;43.68;99610.50;5102299;28;19920;-68
2022/09/10 09:40:14;;;;;;;;;;;;;;;29.76;42.87;99600.22;5101095;28;19931;-68
2022/09/10 09:42:57;;;;;;;;;;;;;;;29.65;43.46;99589.72;5102012;28;19912;-68
2022/09/10 09:45:37;;;;;;;;;;;;;;;29.57;43.23;99591.16;5098333;28;19930;-67
2022/09/10 09:48:06;;;;;;;;;;;;;;;29.33;44.38;99582.13;5098393;28;19912;-68
2022/09/10 09:50:33;;;;;;;;;;;;;;;29.30;45.18;99571.81;5101971;28;19999;-68
2022/09/10 09:52:58;;;;;;;;;;;;;;;29.53;44.32;99568.28;5100942;28;19982;-67
2022/09/10 09:55:29;;;;;;;;;;;;;;;29.44;44.15;99557.22;5102033;28;20205;-67
2022/09/10 09:58:14;;;;;;;;;;;;;;;29.42;44.94;99562.13;5083675;28;20156;-67
2022/09/10 10:00:39;;;;;;;;;;;;;;;29.42;44.76;99559.38;5101977;28;19962;-67
2022/09/10 10:03:11;;;;;;;;;;;;;;;29.64;43.64;99555.34;5101358;28;19912;-68
2022/09/10 10:05:36;;;;;;;;;;;;;;;29.65;43.26;99557.78;5098014;28;19916;-67
2022/09/10 10:08:02;;;;;;;;;;;;;;;29.45;43.43;99555.28;5101473;28;20138;-68
2022/09/10 10:10:27;;;;;;;;;;;;;;;29.43;43.75;99552.88;5100527;28;19923;-67
2022/09/10 10:12:53;;;;;;;;;;;;;;;29.52;43.49;99544.84;5101585;28;19974;-68
2022/09/10 10:15:38;;;;;;;;;;;;;;;29.29;44.19;99532.00;5100383;28;19979;-67
2022/09/10 10:18:22;;;;;;;;;;;;;;;29.13;45.05;99534.91;5100305;28;19966;-68
2022/09/10 10:20:48;;;;;;;;;;;;;;;29.38;44.04;99525.63;5101326;28;19934;-68
2022/09/10 10:23:36;;;;;;;;;;;;;;;29.50;43.11;99531.50;5100455;28;20185;-67
2022/09/10 10:26:22;;;;;;;;;;;;;;;29.51;42.99;99538.56;5101816;28;19916;-68
2022/09/10 10:28:49;;;;;;;;;;;;;;;29.46;43.45;99533.19;5103116;28;20190;-68
2022/09/10 10:31:15;;;;;;;;;;;;;;;29.42;43.95;99529.38;5100240;28;19924;-67
2022/09/10 10:33:46;;;;;;;;;;;;;;;29.53;44.54;99519.19;5100510;28;19912;-67
2022/09/10 10:36:25;;;;;;;;;;;;;;;29.43;44.64;99509.22;5100406;28;19994;-67
2022/09/10 10:38:59;;;;;;;;;;;;;;;29.33;44.53;99511.22;5082533;28;20101;-68
2022/09/10 10:41:28;;;;;;;;;;;;;;;29.27;44.73;99512.41;5100045;28;19964;-68
2022/09/10 10:44:14;;;;;;;;;;;;;;;29.31;45.31;99506.06;5100013;28;19918;-68
2022/09/10 10:46:54;;;;;;;;;;;;;;;29.16;46.38;99495.34;5078614;28;20008;-67
2022/09/10 10:49:36;;;;;;;;;;;;;;;29.45;45.88;99496.09;5100151;28;19912;-68
2022/09/10 10:52:24;;;;;;;;;;;;;;;29.37;45.45;99487.72;5102229;28;20241;-68
2022/09/10 10:54:49;;;;;;;;;;;;;;;29.31;45.89;99475.25;5103207;28;19965;-68
2022/09/10 10:57:14;;;;;;;;;;;;;;;29.47;45.08;99480.25;5099535;28;20209;-68
2022/09/10 10:59:43;;;;;;;;;;;;;;;29.40;46.81;99482.50;5099603;28;19912;-68
2022/09/10 11:02:14;;;;;;;;;;;;;;;29.57;46.80;99479.31;5100491;28;19915;-67
2022/09/10 11:04:44;;;;;;;;;;;;;;;29.41;47.36;99472.41;5100006;28;19927;-68
2022/09/10 11:07:17;;;;;;;;;;;;;;;29.45;47.50;99471.56;5103002;28;19939;-68
2022/09/10 11:09:46;;;;;;;;;;;;;;;29.41;47.18;99458.75;5101866;28;19911;-67
2022/09/10 11:12:15;;;;;;;;;;;;;;;29.31;46.97;99459.72;5099453;28;19916;-67
2022/09/10 11:14:50;;;;;;;;;;;;;;;29.43;46.40;99456.59;5099992;28;20174;-67
2022/09/10 11:17:27;;;;;;;;;;;;;;;29.55;46.21;99459.69;5100274;28;19996;-67
2022/09/10 11:20:00;;;;;;;;;;;;;;;29.53;45.87;99451.81;5100280;28;19920;-68
2022/09/10 11:22:31;;;;;;;;;;;;;;;29.76;45.04;99452.03;5099379;28;20308;-68
2022/09/10 11:25:01;;;;;;;;;;;;;;;29.81;45.02;99452.75;5098907;28;19958;-68
2022/09/10 11:27:29;;;;;;;;;;;;;;;29.84;45.63;99443.97;5096378;28;19920;-67
2022/09/10 11:29:54;;;;;;;;;;;;;;;29.86;44.68;99441.78;5100423;28;19912;-67
2022/09/10 11:32:34;;;;;;;;;;;;;;;29.75;45.67;99444.94;5099364;28;20224;-68
2022/09/10 11:35:18;;;;;;;;;;;;;;;29.78;44.96;99428.78;5097516;28;19912;-68
2022/09/10 11:38:19;;;;;;;;;;;;;;;29.76;44.51;99422.00;5098766;28;19923;-68
2022/09/10 11:41:03;;;;;;;;;;;;;;;29.62;45.47;99424.66;5060324;28;19920;-68
2022/09/10 11:43:44;;;;;;;;;;;;;;;29.62;45.39;99424.66;5096334;28;19912;-68
2022/09/10 11:46:25;;;;;;;;;;;;;;;29.49;45.33;99412.56;5096057;28;19916;-67
2022/09/10 11:48:50;;;;;;;;;;;;;;;29.52;45.50;99406.53;5096101;28;19944;-67
2022/09/10 11:51:21;;;;;;;;;;;;;;;29.65;44.61;99404.16;5068760;28;20132;-67
2022/09/10 11:53:46;;;;;;;;;;;;;;;29.59;45.19;99406.16;5098581;28;19912;-67
2022/09/10 11:56:26;;;;;;;;;;;;;;;29.58;44.50;99410.00;5099770;28;20217;-68
2022/09/10 11:58:52;;;;;;;;;;;;;;;29.62;44.86;99407.50;5099467;28;20132;-67
2022/09/10 12:01:39;;;;;;;;;;;;;;;29.69;45.07;99405.19;5098512;28;20007;-68
2022/09/10 12:04:25;;;;;;;;;;;;;;;29.82;44.62;99391.63;5099014;28;19912;-67
2022/09/10 12:07:16;;;;;;;;;;;;;;;30.01;43.36;99391.59;5080334;28;19954;-68
2022/09/10 12:09:53;;;;;;;;;;;;;;;29.98;42.95;99383.97;5068900;28;19912;-67
2022/09/10 12:12:19;;;;;;;;;;;;;;;29.97;43.31;99395.19;5098902;28;20214;-68
2022/09/10 12:14:44;;;;;;;;;;;;;;;29.87;43.97;99397.00;5098885;28;19983;-68
2022/09/10 12:17:14;;;;;;;;;;;;;;;29.99;43.45;99393.00;5081435;28;20450;-67
2022/09/10 12:19:47;;;;;;;;;;;;;;;30.06;43.57;99394.25;5099349;28;19912;-68
2022/09/10 12:22:15;;;;;;;;;;;;;;;30.17;42.92;99390.28;5101644;28;19912;-68
2022/09/10 12:24:49;;;;;;;;;;;;;;;30.03;42.81;99375.75;5079718;28;19912;-67
2022/09/10 12:27:17;;;;;;;;;;;;;;;30.00;43.21;99380.97;5096066;28;19916;-67
2022/09/10 12:29:43;;;;;;;;;;;;;;;30.07;43.59;99370.50;5099363;28;20004;-68
2022/09/10 12:32:18;;;;;;;;;;;;;;;30.18;42.29;99371.97;5097983;28;20098;-68
2022/09/10 12:34:47;;;;;;;;;;;;;;;30.23;42.34;99362.88;5096378;28;19960;-68
2022/09/10 12:37:20;;;;;;;;;;;;;;;30.10;43.44;99356.25;5099349;28;20085;-68
2022/09/10 12:39:45;;;;;;;;;;;;;;;30.37;42.37;99358.25;5099014;28;19923;-67
2022/09/10 12:42:26;;;;;;;;;;;;;;;30.32;42.43;99347.41;5101319;28;19967;-67
2022/09/10 12:44:52;;;;;;;;;;;;;;;30.30;42.87;99341.44;5099713;28;19935;-68
2022/09/10 12:47:26;;;;;;;;;;;;;;;30.33;44.12;99349.03;5098126;28;19919;-67
2022/09/10 12:49:53;;;;;;;;;;;;;;;30.42;41.84;99333.56;5095549;28;20116;-68
2022/09/10 12:52:19;;;;;;;;;;;;;;;30.29;42.17;99332.44;5098767;28;19927;-68
2022/09/10 12:54:50;;;;;;;;;;;;;;;30.29;42.06;99323.44;5098284;28;19915;-67